Flight Track Log - Related Links

Times and Time Zones

All times are in EDT time to prevent confusion due to time zone crossing. See the N830QS flight status page for this flight to view local times or setup timezone preferences in your user account.

Time Position Orientation Groundspeed Altitude Reporting Facility
EDT Latitude Longitude Course Direction KTS MPH feet Rate Location/Type
Fri 01:20:10 PM 41.2333 -73.1167 346° North 235 270 4,700  Level New York TRACON
Fri 01:21:10 PM 41.2667 -73.2000 298° West 271 312 6,000 650 Climbing New York TRACON
Fri 01:22:10 PM 41.2667 -73.3000 270° West 289 333 6,000  Level New York TRACON
Fri 01:23:10 PM 41.2500 -73.4000 258° West 284 327 6,000  Level New York TRACON
Fri 01:24:10 PM 41.2167 -73.5000 246° West 286 329 6,000  Level New York TRACON
Fri 01:25:10 PM 41.1833 -73.6000 246° West 289 333 6,000  Level New York TRACON
Fri 01:26:10 PM 41.1667 -73.6833 255° West 290 334 6,000 200 Level New York TRACON
Fri 01:27:10 PM 41.1333 -73.7833 246° West 293 337 6,400 1,200 Climbing New York TRACON
Fri 01:28:10 PM 41.0833 -73.8833 236° Southwest 295 339 8,400 1,300 Climbing New York TRACON
Fri 01:29:10 PM 41.0333 -73.9833 236° Southwest 310 357 9,000 286 Climbing New York TRACON
Fri 01:30:16 PM 41.0000 -74.0833 246° West 302 348 9,000 650 Level New York TRACON
Fri 01:31:10 PM 40.9667 -74.1833 246° West 299 344 10,300 2,500 Climbing New York TRACON
Fri 01:32:16 PM 40.9500 -74.2833 258° West 306 352 14,000 2,400 Climbing New York TRACON
Fri 01:33:10 PM 40.9000 -74.3833 237° Southwest 351 404 15,100 1,241 Climbing New York TRACON
Fri 01:35:39 PM 40.7558 -74.6583 235° Southwest 372 428 18,200 1,636 Climbing New York Center
Fri 01:36:39 PM 40.6983 -74.7647 235° Southwest 367 422 20,800 2,500 Climbing New York Center
Fri 01:37:39 PM 40.6425 -74.8733 236° Southwest 367 422 23,200 2,200 Climbing New York Center
Fri 01:38:39 PM 40.5867 -74.9794 235° Southwest 367 422 25,200 1,500 Climbing New York Center
Fri 01:39:39 PM 40.5244 -75.0850 232° Southwest 367 422 26,200 900 Climbing New York Center
Fri 01:40:39 PM 40.4600 -75.1900 231° Southwest 372 428 27,000 750 Climbing New York Center
Fri 01:41:39 PM 40.3914 -75.2972 230° Southwest 383 441 27,700 850 Climbing New York Center
Fri 01:42:39 PM 40.3269 -75.4019 231° Southwest 383 441 28,700 1,000 Climbing New York Center
Fri 01:43:39 PM 40.2603 -75.5036 229° Southwest 383 441 29,700 1,000 Climbing New York Center
Fri 01:44:39 PM 40.1975 -75.6133 233° Southwest 383 441 30,700 1,000 Climbing New York Center
Fri 01:45:39 PM 40.1406 -75.7289 237° Southwest 383 441 31,700 1,200 Climbing New York Center
Fri 01:46:39 PM 40.0836 -75.8442 237° Southwest 383 441 33,100 1,100 Climbing New York Center
Fri 01:47:39 PM 40.0267 -75.9567 237° Southwest 383 441 33,900 -50 Climbing New York Center
Fri 01:48:39 PM 39.9653 -76.0714 235° Southwest 378 435 33,000 -800 Descending New York Center
Fri 01:49:39 PM 39.9100 -76.1864 238° Southwest 398 458 32,300 -1,000 Descending New York Center
Fri 01:50:39 PM 39.8333 -76.3103 231° Southwest 427 491 31,000 -1,300 Descending New York Center
Fri 01:51:39 PM 39.7547 -76.4308 230° Southwest 447 514 29,700 -1,333 Descending New York Center
Fri 01:52:36 PM 39.6722 -76.5539 229° Southwest 452 520 28,400 -872 Descending Washington Center
Fri 01:53:36 PM 39.5922 -76.6686 228° Southwest 447 514 28,000 -202 Descending Washington Center
Fri 01:54:35 PM 39.5181 -76.7806 229° Southwest 435 501 28,000  Level Washington Center
Fri 01:55:36 PM 39.4419 -76.8950 229° Southwest 424 488 28,000  Level Washington Center
Fri 01:56:36 PM 39.3678 -77.0064 229° Southwest 424 488 28,000  Level Washington Center
Fri 01:57:37 PM 39.2936 -77.1175 229° Southwest 424 488 28,000  Level Washington Center
Fri 01:58:35 PM 39.2192 -77.2258 228° Southwest 424 488 28,000  Level Washington Center
Fri 01:59:36 PM 39.1425 -77.3419 230° Southwest 424 488 28,000  Level Washington Center
Fri 02:00:37 PM 39.0658 -77.4497 228° Southwest 424 488 28,000  Level Washington Center
Fri 02:01:35 PM 38.9953 -77.5519 228° Southwest 424 488 28,000 -555 Level Washington Center
Fri 02:02:36 PM 38.9100 -77.6806 230° Southwest 431 496 26,900 -992 Descending Washington Center
Fri 02:03:36 PM 38.8350 -77.7822 227° Southwest 431 496 26,000 -942 Descending Washington Center
Fri 02:04:37 PM 38.7558 -77.8997 229° Southwest 436 502 25,000 -1,008 Descending Washington Center
Fri 02:05:35 PM 38.6786 -78.0117 229° Southwest 429 494 24,000 -504 Descending Washington Center
Fri 02:06:36 PM 38.6033 -78.1181 228° Southwest 424 488 24,000  Level Washington Center
Fri 02:07:37 PM 38.5281 -78.2269 229° Southwest 419 482 24,000  Level Washington Center
Fri 02:08:35 PM 38.4525 -78.3358 228° Southwest 419 482 24,000 -101 Level Washington Center
Fri 02:09:36 PM 38.3686 -78.4517 227° Southwest 414 476 23,800 -397 Descending Washington Center
Fri 02:10:36 PM 38.2928 -78.5628 229° Southwest 414 476 23,200 -496 Descending Washington Center
Fri 02:11:37 PM 38.2258 -78.6603 229° Southwest 414 476 22,800 -605 Descending Washington Center
Fri 02:12:35 PM 38.1414 -78.7811 228° Southwest 419 482 22,000 -1,210 Descending Washington Center
Fri 02:13:36 PM 38.0678 -78.8833 228° Southwest 419 482 20,400 -1,475 Descending Washington Center
Fri 02:14:37 PM 37.9917 -78.9881 227° Southwest 408 470 19,000 -1,412 Descending Washington Center
Fri 02:15:35 PM 37.9200 -79.0875 228° Southwest 408 470 17,600 -1,412 Descending Washington Center
Fri 02:16:36 PM 37.8794 -79.1908 244° Southwest 386 444 16,200 -738 Descending Washington Center
Fri 02:17:37 PM 37.8444 -79.3128 250° West 369 425 16,100 -50 Descending Washington Center
Fri 02:18:37 PM 37.8114 -79.4347 251° West 375 432 16,100  Level Washington Center
Fri 02:19:36 PM 37.7861 -79.5700 257° West 364 419 16,100  Level Washington Center
Fri 02:20:36 PM 37.7631 -79.6978 257° West 370 426 16,100 -400 Level Washington Center
Fri 02:21:36 PM 37.7383 -79.8119 255° West 375 432 15,300 -1,140 Descending Washington Center
Fri 02:22:37 PM 37.7150 -79.9339 256° West 370 426 13,800 -1,513 Descending Washington Center
Fri 02:23:35 PM 37.6939 -80.0561 258° West 370 426 12,300 -1,513 Descending Washington Center
Fri 02:24:36 PM 37.6750 -80.1706 258° West 359 413 10,800 -1,525 Descending Washington Center
Fri 02:25:37 PM 37.6561 -80.2822 258° West 323 372 9,200 -1,563 Descending Washington Center
Fri 02:26:35 PM 37.6356 -80.3753 254° West 301 346 7,700 -1,513 Descending Washington Center
Fri 02:27:36 PM 37.6150 -80.4736 255° West 295 339 6,200 -1,240 Descending Washington Center
Fri 02:28:36 PM 37.6281 -80.5611 281° West 259 298 5,200 -496 Descending Washington Center
Fri 02:29:37 PM 37.6781 -80.5617 359° North 167 192 5,200  Level Washington Center
Fri 02:30:35 PM 37.7144 -80.5431 22° Northeast 132 152 5,200 -203 Level Washington Center
Fri 02:31:35 PM 37.7469 -80.5083 40° Northeast 122 140 4,800 -545 Descending Washington Center
Fri 02:32:36 PM 37.7753 -80.4814 37° Northeast 133 153 4,100 -694 Descending Washington Center
Fri 02:33:36 PM 37.8036 -80.4542 37° Northeast 123 142 3,400 -446 Descending Washington Center
Fri 02:34:37 PM 37.8294 -80.4322 34° Northeast 123 142 3,200 10,387 Descending Washington Center
Fri 02:35:35 PM 37.8575 -80.4078 35° Northeast 123 142 24,000 21,517 Climbing Washington Center

Login

Don't have an account? Register now (free) for customized features, flight alerts, and more!